Candarli, Turkey

10:38 AM +03 on May 30, 2017 (GMT +0300)
Topel Air Base | | Change Station

Elev 180 ft 40.71 °N, 30.12 °E | Updated 48 minutes ago

Rain
Rain
59 °F
Feels Like 59 °F
N
5
Wind Variable Wind from West

Today
High -- | Low -- °F
--% Chance of Precip.
Yesterday
High -- | Low -- °F
Precip. -- in
Pressure 30.01 in
Visibility -9999.0 miles
Clouds Scattered Clouds 1000 ft
Mostly Cloudy 2700 ft
Mostly Cloudy 7000 ft
Dew Point 59 °F
Humidity 100%
Rainfall 0.00 in
Snow Depth Not available.
5:33 AM 8:23 PM
Waxing Crescent, 27% visible
METAR LTBQ 300650Z 28004KT 220V320 3200 -SHRA BR SCT010 BKN027 BKN070 15/15 Q1016 BECMG TL0730 6000 TEMPO FM0800 2800 SHRA
Pressure 30.01 in
Visibility -9999.0 miles
Clouds Scattered Clouds 1000 ft
Mostly Cloudy 2700 ft
Mostly Cloudy 7000 ft
Dew Point 59 °F
Humidity 100%
Rainfall 0.00 in
Snow Depth Not available.
5:33 AM 8:23 PM
Waxing Crescent, 27% visible
METAR LTBQ 300650Z 28004KT 220V320 3200 -SHRA BR SCT010 BKN027 BKN070 15/15 Q1016 BECMG TL0730 6000 TEMPO FM0800 2800 SHRA

Get Severe Weather Alerts

Thanks for signing up!

Be on the lookout for a verification email in your inbox.

You'll start receiving the daily forecast at 6 AM.

×

10-Day Weather Forecast

×

Almanac

Astronomy

May. 30, 2017 Rise Set
Actual Time
Civil Twilight
Nautical Twilight
Astronomical Twilight
Moon
Length of Visible Light
Length of Day
Tomorrow will be .
, % of the Moon is Illuminated

Today's Extremes

Country Highs Country Lows

Community

WunderPhotos

Category 6

Welcome to Category 6. This is the collective home for Weather Underground's featured writeups by Dr. Jeff Masters (right), Bob Henson (left), Chris Burt, and other regular contributors.

Nearby

Air Quality

  Air Quality AQ Index Pollutant
Not available.

Snow Depth

Station Depth Elevation

Earthquake Activity

City Distance Mag. Time & Date
Minimum magnitude displayed is 2.5.

Coastal Water Temperatures

Place Temperature

Stations

Nearby Weather Stations

Station Location Temp. Windchill Dew Point Humidity Wind Precip. Elev Updated Type